createdAt,value
2018-06-30T00:01:47.028Z,65.09
2018-06-30T00:04:17.309Z,65.35
2018-06-30T00:06:46.813Z,65.41
2018-06-30T00:09:16.247Z,65.85
2018-06-30T00:11:46.451Z,65.46
2018-06-30T00:14:16.134Z,66.63
2018-06-30T00:16:46.019Z,66.88
2018-06-30T00:19:15.509Z,66.64
2018-06-30T00:21:45.526Z,66.80
2018-06-30T00:24:15.310Z,67.44
2018-06-30T00:26:45.631Z,68.05
2018-06-30T00:29:15.184Z,68.16
2018-06-30T00:31:45.096Z,68.46
2018-06-30T00:34:14.623Z,69.48
2018-06-30T00:36:44.331Z,70.14
2018-06-30T00:39:14.296Z,71.08
2018-06-30T00:41:44.915Z,70.89
2018-06-30T00:44:14.800Z,71.49
2018-06-30T00:46:44.705Z,72.68
2018-06-30T00:49:14.439Z,73.42
2018-06-30T00:51:44.155Z,74.66
2018-06-30T00:54:13.911Z,75.24
2018-06-30T00:56:43.652Z,74.72
2018-06-30T00:59:13.467Z,75.24
2018-06-30T01:01:43.172Z,75.24
2018-06-30T01:04:12.985Z,74.61
2018-06-30T01:06:42.680Z,72.54
2018-06-30T01:09:12.372Z,71.98
2018-06-30T01:11:42.067Z,72.50
2018-06-30T01:14:11.788Z,71.67
2018-06-30T01:16:41.226Z,72.44
2018-06-30T01:19:10.653Z,72.21
2018-06-30T01:21:40.327Z,72.32
2018-06-30T01:24:10.168Z,73.03
2018-06-30T01:26:39.859Z,73.37
2018-06-30T01:29:09.570Z,73.11
2018-06-30T01:31:39.779Z,73.84
2018-06-30T01:34:09.504Z,74.80
2018-06-30T01:36:39.407Z,74.96
2018-06-30T01:39:10.799Z,75.36
2018-06-30T01:41:41.167Z,76.09
2018-06-30T01:44:10.913Z,75.75
2018-06-30T01:46:40.623Z,76.25
2018-06-30T01:49:10.935Z,76.16
2018-06-30T01:51:40.660Z,76.38
2018-06-30T01:54:10.427Z,76.63
2018-06-30T01:56:40.740Z,76.46
2018-06-30T01:59:10.428Z,76.24
2018-06-30T02:01:40.120Z,76.08
2018-06-30T02:04:10.222Z,76.36
2018-06-30T02:06:40.771Z,76.08
2018-06-30T02:09:11.575Z,76.81
2018-06-30T02:11:41.427Z,77.30
2018-06-30T02:14:11.075Z,76.51
2018-06-30T02:16:41.154Z,76.39
2018-06-30T02:19:11.569Z,76.89
2018-06-30T02:21:41.666Z,77.23
2018-06-30T02:24:11.564Z,77.39
2018-06-30T02:26:41.908Z,77.87
2018-06-30T02:29:11.816Z,77.65
2018-06-30T02:31:41.536Z,77.40
2018-06-30T02:34:11.387Z,78.35
2018-06-30T02:36:41.367Z,77.88
2018-06-30T02:39:11.662Z,77.68
2018-06-30T02:41:42.079Z,78.75
2018-06-30T02:44:11.844Z,77.52
2018-06-30T02:46:41.595Z,77.98
2018-06-30T02:49:11.426Z,77.79
2018-06-30T02:51:41.145Z,77.35
2018-06-30T02:54:10.872Z,76.83
2018-06-30T02:56:40.570Z,76.99
2018-06-30T02:59:10.334Z,77.62
2018-06-30T03:01:40.036Z,77.54
2018-06-30T03:04:09.755Z,76.95
2018-06-30T03:06:39.463Z,77.82
2018-06-30T03:09:10.173Z,77.44
2018-06-30T03:11:40.273Z,76.45
2018-06-30T03:14:09.987Z,76.97
2018-06-30T03:16:39.735Z,76.28
2018-06-30T03:19:09.468Z,76.27
2018-06-30T03:21:39.180Z,75.46
2018-06-30T03:24:08.667Z,75.34
2018-06-30T03:26:38.388Z,75.53
2018-06-30T03:29:08.085Z,75.49
2018-06-30T03:31:37.857Z,76.07
2018-06-30T03:34:07.715Z,76.25
2018-06-30T03:36:37.588Z,75.71
2018-06-30T03:39:09.391Z,75.23
2018-06-30T03:41:39.180Z,75.01
2018-06-30T03:44:08.898Z,74.27
2018-06-30T03:46:38.644Z,73.40
2018-06-30T03:49:08.375Z,72.22
2018-06-30T03:51:38.092Z,72.40
2018-06-30T03:54:07.857Z,72.75
2018-06-30T03:56:37.302Z,72.19
2018-06-30T03:59:07.047Z,73.13
2018-06-30T04:01:36.772Z,73.31
2018-06-30T04:04:06.487Z,72.79
2018-06-30T04:06:36.255Z,72.27
2018-06-30T04:09:09.089Z,70.57
2018-06-30T04:11:38.924Z,70.07
2018-06-30T04:14:08.977Z,68.87
2018-06-30T04:16:39.059Z,67.96
2018-06-30T04:19:15.556Z,66.39
2018-06-30T04:21:46.839Z,66.02
2018-06-30T04:24:16.533Z,66.06
2018-06-30T04:26:46.243Z,65.49
2018-06-30T04:29:15.656Z,66.16
2018-06-30T04:31:45.375Z,66.53
2018-06-30T04:34:15.487Z,66.41
2018-06-30T04:36:45.279Z,67.82
2018-06-30T04:39:15.000Z,66.96
2018-06-30T04:41:44.671Z,67.82
2018-06-30T04:44:14.336Z,67.97
2018-06-30T04:46:44.071Z,67.42
2018-06-30T04:49:13.787Z,67.51
2018-06-30T04:51:43.515Z,67.12
2018-06-30T04:54:13.211Z,67.39
2018-06-30T04:56:42.891Z,66.38
2018-06-30T04:59:12.611Z,66.64
2018-06-30T05:01:42.365Z,66.66
2018-06-30T05:04:12.192Z,66.04
2018-06-30T05:06:42.711Z,66.30
2018-06-30T05:09:12.555Z,65.11
2018-06-30T05:11:42.411Z,64.87
2018-06-30T05:14:12.307Z,64.76
2018-06-30T05:16:42.236Z,63.76
2018-06-30T05:19:12.362Z,63.55
2018-06-30T05:21:42.331Z,62.42
2018-06-30T05:24:12.044Z,62.81
2018-06-30T05:26:41.787Z,62.23
2018-06-30T05:29:11.507Z,61.03
2018-06-30T05:31:41.208Z,60.19
2018-06-30T05:34:11.575Z,60.15
2018-06-30T05:36:41.540Z,59.69
2018-06-30T05:39:11.498Z,59.51
2018-06-30T05:41:41.444Z,58.63
2018-06-30T05:44:11.603Z,57.66
2018-06-30T05:46:41.356Z,58.30
2018-06-30T05:49:11.303Z,57.79
2018-06-30T05:51:41.436Z,54.47
2018-06-30T05:54:11.375Z,52.51
2018-06-30T05:56:41.527Z,48.19
2018-06-30T05:59:11.232Z,44.65
2018-06-30T06:01:40.978Z,44.82
2018-06-30T06:04:10.805Z,43.97
2018-06-30T06:06:40.643Z,44.60
2018-06-30T06:09:12.051Z,44.38
2018-06-30T06:11:42.702Z,43.11
2018-06-30T06:14:12.501Z,41.97
2018-06-30T06:16:42.443Z,40.97
2018-06-30T06:19:12.363Z,40.76
2018-06-30T06:21:42.236Z,41.51
2018-06-30T06:24:12.760Z,41.71
2018-06-30T06:26:42.523Z,42.82
2018-06-30T06:29:14.315Z,42.91
2018-06-30T06:31:44.548Z,41.93
2018-06-30T06:34:14.584Z,40.28
2018-06-30T06:36:44.299Z,39.90
2018-06-30T06:39:14.039Z,38.42
2018-06-30T06:41:44.514Z,35.20
2018-06-30T06:44:15.626Z,32.86
2018-06-30T06:46:45.987Z,33.49
2018-06-30T06:49:16.896Z,34.12
2018-06-30T06:51:47.604Z,35.53
2018-06-30T06:54:17.417Z,38.15
2018-06-30T06:56:47.104Z,35.99
2018-06-30T06:59:17.603Z,34.82
2018-06-30T07:01:47.855Z,33.32
2018-06-30T07:04:17.962Z,34.16
2018-06-30T07:06:48.237Z,35.04
2018-06-30T07:09:17.912Z,35.86
2018-06-30T07:11:47.599Z,35.55
2018-06-30T07:14:17.347Z,38.78
2018-06-30T07:16:47.108Z,38.62
2018-06-30T07:19:16.890Z,40.17
2018-06-30T07:21:46.703Z,40.88
2018-06-30T07:24:16.421Z,37.24
2018-06-30T07:26:46.325Z,35.46
2018-06-30T07:29:16.043Z,34.81
2018-06-30T07:31:46.314Z,35.67
2018-06-30T07:34:16.350Z,35.02
2018-06-30T07:36:47.995Z,36.50
2018-06-30T07:39:17.855Z,36.49
2018-06-30T07:41:47.929Z,39.17
2018-06-30T07:44:17.619Z,39.95
2018-06-30T07:46:47.315Z,41.99
2018-06-30T07:49:17.372Z,41.25
2018-06-30T07:51:47.179Z,40.14
2018-06-30T07:54:16.958Z,40.25
2018-06-30T07:56:46.707Z,39.30
2018-06-30T07:59:16.407Z,38.10
2018-06-30T08:01:46.119Z,38.71
2018-06-30T08:04:15.771Z,39.15
2018-06-30T08:06:45.504Z,40.80
2018-06-30T08:09:15.524Z,41.25
2018-06-30T08:11:45.232Z,42.31
2018-06-30T08:14:14.935Z,42.01
2018-06-30T08:16:44.635Z,40.96
2018-06-30T08:19:14.364Z,43.16
2018-06-30T08:21:44.048Z,42.60
2018-06-30T08:24:13.816Z,40.63
2018-06-30T08:26:43.503Z,39.82
2018-06-30T08:29:13.227Z,34.76
2018-06-30T08:31:42.970Z,30.76
2018-06-30T08:34:13.240Z,30.17
2018-06-30T08:36:43.518Z,31.51
2018-06-30T08:39:14.612Z,33.00
2018-06-30T08:41:44.359Z,34.67
2018-06-30T08:44:14.027Z,33.28
2018-06-30T08:46:44.328Z,31.42
2018-06-30T08:49:14.107Z,32.46
2018-06-30T08:51:43.797Z,32.13
2018-06-30T08:54:13.528Z,33.59
2018-06-30T08:56:43.786Z,33.03
2018-06-30T08:59:14.195Z,31.46
2018-06-30T09:01:44.519Z,31.51
2018-06-30T09:04:14.883Z,33.99
2018-06-30T09:06:45.156Z,32.04
2018-06-30T09:09:15.428Z,27.94
2018-06-30T09:11:46.083Z,28.54
2018-06-30T09:14:16.321Z,26.31
2018-06-30T09:16:46.595Z,27.62
2018-06-30T09:19:16.827Z,28.18
2018-06-30T09:21:47.115Z,29.43
2018-06-30T09:24:17.431Z,29.81
2018-06-30T09:26:47.874Z,28.77
2018-06-30T09:29:18.147Z,27.73
2018-06-30T09:31:48.752Z,25.26
2018-06-30T09:34:19.576Z,24.89
2018-06-30T09:36:49.828Z,26.21
2018-06-30T09:39:20.227Z,26.88
2018-06-30T09:41:50.504Z,28.53
2018-06-30T09:44:20.866Z,29.69
2018-06-30T09:46:50.767Z,30.98
2018-06-30T09:49:20.444Z,31.76
2018-06-30T09:51:50.192Z,32.35
2018-06-30T09:54:19.871Z,32.61
2018-06-30T09:56:49.598Z,33.16
2018-06-30T09:59:19.283Z,33.33
2018-06-30T10:01:48.963Z,30.90
2018-06-30T10:04:18.823Z,31.52
2018-06-30T10:06:48.531Z,32.06
2018-06-30T10:09:18.469Z,32.36
2018-06-30T10:11:48.148Z,34.74
2018-06-30T10:14:17.818Z,35.25
2018-06-30T10:16:47.555Z,35.54
2018-06-30T10:19:17.329Z,34.57
2018-06-30T10:21:47.208Z,35.03
2018-06-30T10:24:16.891Z,34.23
2018-06-30T10:26:46.586Z,34.77
2018-06-30T10:29:16.335Z,36.96
2018-06-30T10:31:46.054Z,36.13
2018-06-30T10:34:16.003Z,38.11
2018-06-30T10:36:45.685Z,37.88
2018-06-30T10:39:15.735Z,38.16
2018-06-30T10:41:45.203Z,35.76
2018-06-30T10:44:14.888Z,35.65
2018-06-30T10:46:44.611Z,35.41
2018-06-30T10:49:14.324Z,36.36
2018-06-30T10:51:44.132Z,35.41
2018-06-30T10:54:13.872Z,34.11
2018-06-30T10:56:43.595Z,34.66
2018-06-30T10:59:13.319Z,35.33
2018-06-30T11:01:43.051Z,35.63
2018-06-30T11:04:12.743Z,36.39
2018-06-30T11:06:42.669Z,35.27
2018-06-30T11:09:13.179Z,35.33
2018-06-30T11:11:42.895Z,33.13
2018-06-30T11:14:12.613Z,32.80
2018-06-30T11:16:42.315Z,32.50
2018-06-30T11:19:12.391Z,32.64
2018-06-30T11:21:42.375Z,33.38
2018-06-30T11:24:12.088Z,33.84
2018-06-30T11:26:41.803Z,34.73
2018-06-30T11:29:11.492Z,34.11
2018-06-30T11:31:41.304Z,35.33
2018-06-30T11:34:11.239Z,37.14
2018-06-30T11:36:40.968Z,35.48
2018-06-30T11:39:12.812Z,34.03
2018-06-30T11:41:43.511Z,33.99
2018-06-30T11:44:13.696Z,33.65
2018-06-30T11:46:43.456Z,32.80
2018-06-30T11:49:13.175Z,32.13
2018-06-30T11:51:42.876Z,32.18
2018-06-30T11:54:12.548Z,32.92
2018-06-30T11:56:42.299Z,33.64
2018-06-30T11:59:11.983Z,34.46
2018-06-30T12:01:41.668Z,33.57
2018-06-30T12:04:11.496Z,32.77
2018-06-30T12:06:41.179Z,32.76
2018-06-30T12:09:11.754Z,32.28
2018-06-30T12:11:41.484Z,30.93
2018-06-30T12:14:11.452Z,31.45
2018-06-30T12:16:41.127Z,31.08
2018-06-30T12:19:11.402Z,32.54
2018-06-30T12:21:41.752Z,32.01
2018-06-30T12:24:12.004Z,33.81
2018-06-30T12:26:42.315Z,31.71
2018-06-30T12:29:12.609Z,32.17
2018-06-30T12:31:42.949Z,30.55
2018-06-30T12:34:13.212Z,30.16
2018-06-30T12:36:43.472Z,30.47
2018-06-30T12:39:13.800Z,30.39
2018-06-30T12:41:44.566Z,32.30
2018-06-30T12:44:14.859Z,32.06
2018-06-30T12:46:45.133Z,32.78
2018-06-30T12:49:15.431Z,33.50
2018-06-30T12:51:45.692Z,33.52
2018-06-30T12:54:16.105Z,33.93
2018-06-30T12:56:45.955Z,33.27
2018-06-30T12:59:15.752Z,33.90
2018-06-30T13:01:45.861Z,31.81
2018-06-30T13:04:15.659Z,30.86
2018-06-30T13:06:45.403Z,31.79
2018-06-30T13:09:16.147Z,32.66
2018-06-30T13:11:46.148Z,32.53
2018-06-30T13:14:15.883Z,32.21
2018-06-30T13:16:45.603Z,32.80
2018-06-30T13:19:15.321Z,32.79
2018-06-30T13:21:45.016Z,34.27
2018-06-30T13:24:15.091Z,34.10
2018-06-30T13:26:44.782Z,35.50
2018-06-30T13:29:14.480Z,35.42
2018-06-30T13:31:44.183Z,35.89
2018-06-30T13:34:14.208Z,35.25
2018-06-30T13:36:43.940Z,34.60
2018-06-30T13:39:15.040Z,34.87
2018-06-30T13:41:44.888Z,34.06
2018-06-30T13:44:14.898Z,33.42
2018-06-30T13:46:44.651Z,33.50
2018-06-30T13:49:14.363Z,34.22
2018-06-30T13:51:44.408Z,33.40
2018-06-30T13:54:14.335Z,32.67
2018-06-30T13:56:44.328Z,33.35
2018-06-30T13:59:14.045Z,32.89
2018-06-30T14:01:43.716Z,34.74
2018-06-30T14:04:13.394Z,33.63
2018-06-30T14:06:43.092Z,34.03
2018-06-30T14:09:13.163Z,33.20
2018-06-30T14:11:42.891Z,34.15
2018-06-30T14:14:12.599Z,34.13
2018-06-30T14:16:42.275Z,32.93
2018-06-30T14:19:11.993Z,33.77
2018-06-30T14:21:41.696Z,33.63
2018-06-30T14:24:11.507Z,33.82
2018-06-30T14:26:41.184Z,35.37
2018-06-30T14:29:10.895Z,33.67
2018-06-30T14:31:40.699Z,33.80
2018-06-30T14:34:10.408Z,34.05
2018-06-30T14:36:40.103Z,34.03
2018-06-30T14:39:12.284Z,34.85
2018-06-30T14:41:41.716Z,35.93
2018-06-30T14:44:11.535Z,35.90
2018-06-30T14:46:40.959Z,36.41
2018-06-30T14:49:10.996Z,36.15
2018-06-30T14:51:40.947Z,35.13
2018-06-30T14:54:10.679Z,35.98
2018-06-30T14:56:40.404Z,34.64
2018-06-30T14:59:10.091Z,35.64
2018-06-30T15:01:39.789Z,34.76
2018-06-30T15:04:09.824Z,35.73
2018-06-30T15:06:39.803Z,35.93
2018-06-30T15:09:12.340Z,34.44
2018-06-30T15:11:43.505Z,33.91
2018-06-30T15:14:14.119Z,34.44
2018-06-30T15:16:43.585Z,34.77
2018-06-30T15:19:13.358Z,35.82
2018-06-30T15:21:43.051Z,34.89
2018-06-30T15:24:12.812Z,35.61
2018-06-30T15:26:42.731Z,36.39
2018-06-30T15:29:12.724Z,34.35
2018-06-30T15:31:42.424Z,35.74
2018-06-30T15:34:12.156Z,33.93
2018-06-30T15:36:41.888Z,34.31
2018-06-30T15:39:12.063Z,34.17
2018-06-30T15:41:41.785Z,34.67
2018-06-30T15:44:11.808Z,34.88
2018-06-30T15:46:41.528Z,35.15
2018-06-30T15:49:11.277Z,34.28
2018-06-30T15:51:40.975Z,34.27
2018-06-30T15:54:11.033Z,34.75
2018-06-30T15:56:40.939Z,35.08
2018-06-30T15:59:10.630Z,35.41
2018-06-30T16:01:40.604Z,34.83
2018-06-30T16:04:10.566Z,34.74
2018-06-30T16:06:40.271Z,34.88
2018-06-30T16:09:11.205Z,35.52
2018-06-30T16:11:41.106Z,35.22
2018-06-30T16:14:10.868Z,36.04
2018-06-30T16:16:40.860Z,36.77
2018-06-30T16:19:10.593Z,36.66
2018-06-30T16:21:40.284Z,36.17
2018-06-30T16:24:10.005Z,36.32
2018-06-30T16:26:39.740Z,35.61
2018-06-30T16:29:09.460Z,35.65
2018-06-30T16:31:39.512Z,35.10
2018-06-30T16:34:09.219Z,35.03
2018-06-30T16:36:38.983Z,37.31
2018-06-30T16:39:09.991Z,37.47
2018-06-30T16:41:39.715Z,36.73
2018-06-30T16:44:09.520Z,35.49
2018-06-30T16:46:39.250Z,35.54
2018-06-30T16:49:09.367Z,37.01
2018-06-30T16:51:39.240Z,37.91
2018-06-30T16:54:08.987Z,35.46
2018-06-30T16:56:38.712Z,37.42
2018-06-30T16:59:08.417Z,36.43
2018-06-30T17:01:38.104Z,38.27
2018-06-30T17:04:08.220Z,37.75
2018-06-30T17:06:37.955Z,37.60
2018-06-30T17:09:12.652Z,37.12
2018-06-30T17:11:42.355Z,36.54
2018-06-30T17:14:12.032Z,36.53
2018-06-30T17:16:41.744Z,36.88
2018-06-30T17:19:11.431Z,36.85
2018-06-30T17:21:41.095Z,36.25
2018-06-30T17:24:10.884Z,37.91
2018-06-30T17:26:40.962Z,38.05
2018-06-30T17:29:10.834Z,37.68
2018-06-30T17:31:40.582Z,39.07
2018-06-30T17:34:10.301Z,38.85
2018-06-30T17:36:40.088Z,40.64
2018-06-30T17:39:10.953Z,39.79
2018-06-30T17:41:41.415Z,41.99
2018-06-30T17:44:11.651Z,39.80
2018-06-30T17:46:41.859Z,40.18
2018-06-30T17:49:11.523Z,41.08
2018-06-30T17:51:40.939Z,41.19
2018-06-30T17:54:10.675Z,40.52
2018-06-30T17:56:40.353Z,42.27
2018-06-30T17:59:10.415Z,41.71
2018-06-30T18:01:40.108Z,41.11
2018-06-30T18:04:09.871Z,42.00
2018-06-30T18:06:39.956Z,41.99
2018-06-30T18:09:11.444Z,41.50
2018-06-30T18:11:41.827Z,40.71
2018-06-30T18:14:11.586Z,40.83
2018-06-30T18:16:41.510Z,41.13
2018-06-30T18:19:11.400Z,41.07
2018-06-30T18:21:41.101Z,42.16
2018-06-30T18:24:10.845Z,42.42
2018-06-30T18:26:40.531Z,42.46
2018-06-30T18:29:10.243Z,42.95
2018-06-30T18:31:39.941Z,43.46
2018-06-30T18:34:09.652Z,43.01
2018-06-30T18:36:39.388Z,43.91
2018-06-30T18:39:11.028Z,44.38
2018-06-30T18:41:40.943Z,44.40
2018-06-30T18:44:10.743Z,44.85
2018-06-30T18:46:40.824Z,45.01
2018-06-30T18:49:10.871Z,45.46
2018-06-30T18:51:40.928Z,46.42
2018-06-30T18:54:10.897Z,46.50
2018-06-30T18:56:40.941Z,46.46
2018-06-30T18:59:10.929Z,47.90
2018-06-30T19:01:40.680Z,46.41
2018-06-30T19:04:10.556Z,47.39
2018-06-30T19:06:40.270Z,48.15
2018-06-30T19:09:11.003Z,47.48
2018-06-30T19:11:40.433Z,47.97
2018-06-30T19:14:10.340Z,48.16
2018-06-30T19:16:40.051Z,48.31
2018-06-30T19:19:10.103Z,48.72
2018-06-30T19:21:39.817Z,49.08
2018-06-30T19:24:09.895Z,49.33
2018-06-30T19:26:39.683Z,50.46
2018-06-30T19:29:09.579Z,51.23
2018-06-30T19:31:39.320Z,50.91
2018-06-30T19:34:09.045Z,51.11
2018-06-30T19:36:38.763Z,51.99
2018-06-30T19:39:10.340Z,51.56
2018-06-30T19:41:40.083Z,51.50
2018-06-30T19:44:10.318Z,53.46
2018-06-30T19:46:40.111Z,54.49
2018-06-30T19:49:09.852Z,55.54
2018-06-30T19:51:39.667Z,55.85
2018-06-30T19:54:09.724Z,56.22
2018-06-30T19:56:39.155Z,56.77
2018-06-30T19:59:08.836Z,57.08
2018-06-30T20:01:38.548Z,57.33
2018-06-30T20:04:08.247Z,58.60
2018-06-30T20:06:37.969Z,58.34
2018-06-30T20:09:08.112Z,58.22
2018-06-30T20:11:37.903Z,59.48
2018-06-30T20:14:07.652Z,58.65
2018-06-30T20:16:37.072Z,59.77
2018-06-30T20:19:06.823Z,59.20
2018-06-30T20:21:36.559Z,59.54
2018-06-30T20:24:06.599Z,60.92
2018-06-30T20:26:36.287Z,60.44
2018-06-30T20:29:06.332Z,61.21
2018-06-30T20:31:36.039Z,61.67
2018-06-30T20:34:05.791Z,62.92
2018-06-30T20:36:35.532Z,63.33
2018-06-30T20:39:07.920Z,63.80
2018-06-30T20:41:37.940Z,63.87
2018-06-30T20:44:07.769Z,64.13
2018-06-30T20:46:37.499Z,65.12
2018-06-30T20:49:07.220Z,64.01
2018-06-30T20:51:36.952Z,65.12
2018-06-30T20:54:06.710Z,65.05
2018-06-30T20:56:36.617Z,64.54
2018-06-30T20:59:06.736Z,64.58
2018-06-30T21:01:36.487Z,63.75
2018-06-30T21:04:06.392Z,63.98
2018-06-30T21:06:36.112Z,64.62
2018-06-30T21:09:08.308Z,64.90
2018-06-30T21:11:38.024Z,64.65
2018-06-30T21:14:07.805Z,64.29
2018-06-30T21:16:37.540Z,63.76
2018-06-30T21:19:07.327Z,64.85
2018-06-30T21:21:37.449Z,64.52
2018-06-30T21:24:07.193Z,64.66
2018-06-30T21:26:36.903Z,64.70
2018-06-30T21:29:06.604Z,64.55
2018-06-30T21:31:36.287Z,63.92
2018-06-30T21:34:06.067Z,63.94
2018-06-30T21:36:35.809Z,63.58
2018-06-30T21:39:08.933Z,64.84
2018-06-30T21:41:38.743Z,66.17
2018-06-30T21:44:08.507Z,66.25
2018-06-30T21:46:38.292Z,67.14
2018-06-30T21:49:08.006Z,68.45
2018-06-30T21:51:37.983Z,68.43
2018-06-30T21:54:08.272Z,69.02
2018-06-30T21:56:38.231Z,70.23
2018-06-30T21:59:07.972Z,69.89
2018-06-30T22:01:38.180Z,69.78
2018-06-30T22:04:07.656Z,70.54
2018-06-30T22:06:37.356Z,70.61
2018-06-30T22:09:09.624Z,71.41
2018-06-30T22:11:39.332Z,70.85
2018-06-30T22:14:09.067Z,71.20
2018-06-30T22:16:38.752Z,71.28
2018-06-30T22:19:08.572Z,71.50
2018-06-30T22:21:38.631Z,71.78
2018-06-30T22:24:08.080Z,72.05
2018-06-30T22:26:37.787Z,71.75
2018-06-30T22:29:07.259Z,72.64
2018-06-30T22:31:37.011Z,72.97
2018-06-30T22:34:06.921Z,73.60
2018-06-30T22:36:36.660Z,73.16
2018-06-30T22:39:09.814Z,74.35
2018-06-30T22:41:39.568Z,74.13
2018-06-30T22:44:09.478Z,75.42
2018-06-30T22:46:39.329Z,74.74
2018-06-30T22:49:09.012Z,76.23
2018-06-30T22:51:38.746Z,75.81
2018-06-30T22:54:08.476Z,76.48
2018-06-30T22:56:37.921Z,75.76
2018-06-30T22:59:07.708Z,76.54
2018-06-30T23:01:37.464Z,76.83
2018-06-30T23:04:07.224Z,76.12
2018-06-30T23:06:36.936Z,76.28
2018-06-30T23:09:09.419Z,76.66
2018-06-30T23:11:39.138Z,75.92
2018-06-30T23:14:08.632Z,75.29
2018-06-30T23:16:38.414Z,74.95
2018-06-30T23:19:08.164Z,74.55
2018-06-30T23:21:38.167Z,74.14
2018-06-30T23:24:08.308Z,74.21
2018-06-30T23:26:38.073Z,72.47
2018-06-30T23:29:07.831Z,72.03
2018-06-30T23:31:37.583Z,71.05
2018-06-30T23:34:07.679Z,69.74
2018-06-30T23:36:37.392Z,69.35
2018-06-30T23:39:09.487Z,69.22
2018-06-30T23:41:39.619Z,69.28
2018-06-30T23:44:09.444Z,69.52
2018-06-30T23:46:39.206Z,70.31
2018-06-30T23:49:08.651Z,70.34
2018-06-30T23:51:38.423Z,71.39
2018-06-30T23:54:07.876Z,71.21
2018-06-30T23:56:37.575Z,71.51
2018-06-30T23:59:07.388Z,71.94
